sensor_id;sensor_type;location;lat;lon;timestamp;temperature;humidity
72604;DHT22;60645;56.968;24.196;2023-08-20T00:01:23;21.30;91.80
72604;DHT22;60645;56.968;24.196;2023-08-20T00:03:51;21.30;91.90
72604;DHT22;60645;56.968;24.196;2023-08-20T00:06:18;21.30;91.80
72604;DHT22;60645;56.968;24.196;2023-08-20T00:08:45;21.30;92.00
72604;DHT22;60645;56.968;24.196;2023-08-20T00:11:13;21.20;92.30
72604;DHT22;60645;56.968;24.196;2023-08-20T00:13:40;21.20;92.20
72604;DHT22;60645;56.968;24.196;2023-08-20T00:16:07;21.30;92.00
72604;DHT22;60645;56.968;24.196;2023-08-20T00:18:34;21.30;92.20
72604;DHT22;60645;56.968;24.196;2023-08-20T00:21:04;21.20;92.20
72604;DHT22;60645;56.968;24.196;2023-08-20T00:23:31;21.20;92.30
72604;DHT22;60645;56.968;24.196;2023-08-20T00:25:58;21.30;92.30
72604;DHT22;60645;56.968;24.196;2023-08-20T00:28:26;21.20;92.00
72604;DHT22;60645;56.968;24.196;2023-08-20T00:30:52;21.30;91.80
72604;DHT22;60645;56.968;24.196;2023-08-20T00:33:19;21.30;91.80
72604;DHT22;60645;56.968;24.196;2023-08-20T00:35:46;21.30;91.80
72604;DHT22;60645;56.968;24.196;2023-08-20T00:38:13;21.20;92.00
72604;DHT22;60645;56.968;24.196;2023-08-20T00:40:40;21.30;92.00
72604;DHT22;60645;56.968;24.196;2023-08-20T00:43:06;21.30;92.20
72604;DHT22;60645;56.968;24.196;2023-08-20T00:45:33;21.20;92.20
72604;DHT22;60645;56.968;24.196;2023-08-20T00:48:00;21.30;92.10
72604;DHT22;60645;56.968;24.196;2023-08-20T00:50:28;21.20;92.20
72604;DHT22;60645;56.968;24.196;2023-08-20T00:52:55;21.20;92.00
72604;DHT22;60645;56.968;24.196;2023-08-20T00:55:22;21.20;92.10
72604;DHT22;60645;56.968;24.196;2023-08-20T00:57:49;21.30;92.20
72604;DHT22;60645;56.968;24.196;2023-08-20T01:00:16;21.20;92.30
72604;DHT22;60645;56.968;24.196;2023-08-20T01:02:43;21.20;92.20
72604;DHT22;60645;56.968;24.196;2023-08-20T01:05:13;21.20;92.50
72604;DHT22;60645;56.968;24.196;2023-08-20T01:10:33;21.10;92.50
72604;DHT22;60645;56.968;24.196;2023-08-20T01:13:01;21.10;92.60
72604;DHT22;60645;56.968;24.196;2023-08-20T01:15:28;21.10;92.70
72604;DHT22;60645;56.968;24.196;2023-08-20T01:17:55;21.10;92.80
72604;DHT22;60645;56.968;24.196;2023-08-20T01:20:23;21.00;92.90
72604;DHT22;60645;56.968;24.196;2023-08-20T01:30:30;20.90;94.00
72604;DHT22;60645;56.968;24.196;2023-08-20T01:32:58;20.90;94.30
72604;DHT22;60645;56.968;24.196;2023-08-20T01:35:25;20.90;93.60
72604;DHT22;60645;56.968;24.196;2023-08-20T01:37:53;20.80;94.20
72604;DHT22;60645;56.968;24.196;2023-08-20T01:40:19;20.80;94.40
72604;DHT22;60645;56.968;24.196;2023-08-20T01:42:46;20.80;94.50
72604;DHT22;60645;56.968;24.196;2023-08-20T01:45:13;20.70;94.50
72604;DHT22;60645;56.968;24.196;2023-08-20T01:47:40;20.70;94.70
72604;DHT22;60645;56.968;24.196;2023-08-20T01:50:07;20.70;94.70
72604;DHT22;60645;56.968;24.196;2023-08-20T01:52:34;20.70;94.70
72604;DHT22;60645;56.968;24.196;2023-08-20T01:55:01;20.70;94.80
72604;DHT22;60645;56.968;24.196;2023-08-20T01:57:28;20.60;94.90
72604;DHT22;60645;56.968;24.196;2023-08-20T01:59:55;20.70;94.90
72604;DHT22;60645;56.968;24.196;2023-08-20T02:02:22;20.60;95.00
72604;DHT22;60645;56.968;24.196;2023-08-20T02:04:49;20.70;95.10
72604;DHT22;60645;56.968;24.196;2023-08-20T02:07:16;20.70;95.10
72604;DHT22;60645;56.968;24.196;2023-08-20T02:09:43;20.60;95.00
72604;DHT22;60645;56.968;24.196;2023-08-20T02:12:10;20.70;94.80
72604;DHT22;60645;56.968;24.196;2023-08-20T02:14:36;20.60;95.00
72604;DHT22;60645;56.968;24.196;2023-08-20T02:17:03;20.60;95.10
72604;DHT22;60645;56.968;24.196;2023-08-20T02:19:30;20.60;95.10
72604;DHT22;60645;56.968;24.196;2023-08-20T02:21:57;20.60;95.30
72604;DHT22;60645;56.968;24.196;2023-08-20T02:24:24;20.60;95.20
72604;DHT22;60645;56.968;24.196;2023-08-20T02:26:51;20.60;94.90
72604;DHT22;60645;56.968;24.196;2023-08-20T02:29:18;20.70;95.00
72604;DHT22;60645;56.968;24.196;2023-08-20T02:31:45;20.60;94.90
72604;DHT22;60645;56.968;24.196;2023-08-20T02:34:11;20.60;94.90
72604;DHT22;60645;56.968;24.196;2023-08-20T02:36:38;20.50;95.00
72604;DHT22;60645;56.968;24.196;2023-08-20T02:39:05;20.50;95.30
72604;DHT22;60645;56.968;24.196;2023-08-20T02:41:34;20.40;95.20
72604;DHT22;60645;56.968;24.196;2023-08-20T02:44:02;20.50;95.60
72604;DHT22;60645;56.968;24.196;2023-08-20T02:46:29;20.40;95.70
72604;DHT22;60645;56.968;24.196;2023-08-20T02:48:56;20.30;96.10
72604;DHT22;60645;56.968;24.196;2023-08-20T02:51:23;20.40;96.00
72604;DHT22;60645;56.968;24.196;2023-08-20T02:53:50;20.20;96.10
72604;DHT22;60645;56.968;24.196;2023-08-20T02:56:17;20.30;96.30
72604;DHT22;60645;56.968;24.196;2023-08-20T02:58:43;20.30;96.10
72604;DHT22;60645;56.968;24.196;2023-08-20T03:01:23;20.30;96.10
72604;DHT22;60645;56.968;24.196;2023-08-20T03:03:50;20.30;96.10
72604;DHT22;60645;56.968;24.196;2023-08-20T03:06:17;20.20;96.00
72604;DHT22;60645;56.968;24.196;2023-08-20T03:08:44;20.30;96.20
72604;DHT22;60645;56.968;24.196;2023-08-20T03:11:11;20.30;96.20
72604;DHT22;60645;56.968;24.196;2023-08-20T03:13:38;20.30;96.10
72604;DHT22;60645;56.968;24.196;2023-08-20T03:16:04;20.20;96.40
72604;DHT22;60645;56.968;24.196;2023-08-20T03:18:31;20.20;96.10
72604;DHT22;60645;56.968;24.196;2023-08-20T03:20:58;20.20;96.40
72604;DHT22;60645;56.968;24.196;2023-08-20T03:23:25;20.10;96.60
72604;DHT22;60645;56.968;24.196;2023-08-20T03:25:52;20.10;96.60
72604;DHT22;60645;56.968;24.196;2023-08-20T03:28:19;20.10;96.70
72604;DHT22;60645;56.968;24.196;2023-08-20T03:30:46;20.20;96.60
72604;DHT22;60645;56.968;24.196;2023-08-20T03:33:12;20.20;96.40
72604;DHT22;60645;56.968;24.196;2023-08-20T03:35:39;20.30;96.00
72604;DHT22;60645;56.968;24.196;2023-08-20T03:38:06;20.30;95.80
72604;DHT22;60645;56.968;24.196;2023-08-20T03:40:33;20.30;95.90
72604;DHT22;60645;56.968;24.196;2023-08-20T03:43:00;20.20;96.10
72604;DHT22;60645;56.968;24.196;2023-08-20T03:45:27;20.20;96.20
72604;DHT22;60645;56.968;24.196;2023-08-20T03:47:54;20.30;96.30
72604;DHT22;60645;56.968;24.196;2023-08-20T03:50:21;20.50;95.50
72604;DHT22;60645;56.968;24.196;2023-08-20T03:52:48;20.50;95.00
72604;DHT22;60645;56.968;24.196;2023-08-20T03:55:14;20.70;94.30
72604;DHT22;60645;56.968;24.196;2023-08-20T03:57:41;20.90;93.20
72604;DHT22;60645;56.968;24.196;2023-08-20T04:00:08;21.10;92.30
72604;DHT22;60645;56.968;24.196;2023-08-20T04:02:36;21.50;91.20
72604;DHT22;60645;56.968;24.196;2023-08-20T04:05:05;21.80;90.30
72604;DHT22;60645;56.968;24.196;2023-08-20T04:07:31;22.00;89.70
72604;DHT22;60645;56.968;24.196;2023-08-20T04:09:59;22.20;88.70
72604;DHT22;60645;56.968;24.196;2023-08-20T04:12:26;22.40;88.10
72604;DHT22;60645;56.968;24.196;2023-08-20T04:14:53;22.50;87.40
72604;DHT22;60645;56.968;24.196;2023-08-20T04:17:20;22.80;86.60
72604;DHT22;60645;56.968;24.196;2023-08-20T04:19:46;22.80;86.30
72604;DHT22;60645;56.968;24.196;2023-08-20T04:22:13;22.70;86.40
72604;DHT22;60645;56.968;24.196;2023-08-20T04:24:40;22.80;86.60
72604;DHT22;60645;56.968;24.196;2023-08-20T04:27:07;22.70;86.20
72604;DHT22;60645;56.968;24.196;2023-08-20T04:29:34;22.70;85.90
72604;DHT22;60645;56.968;24.196;2023-08-20T04:32:01;23.20;84.70
72604;DHT22;60645;56.968;24.196;2023-08-20T04:34:27;23.60;83.10
72604;DHT22;60645;56.968;24.196;2023-08-20T04:36:54;23.90;82.50
72604;DHT22;60645;56.968;24.196;2023-08-20T04:39:21;24.00;83.10
72604;DHT22;60645;56.968;24.196;2023-08-20T04:41:48;24.20;81.40
72604;DHT22;60645;56.968;24.196;2023-08-20T04:44:15;24.50;80.90
72604;DHT22;60645;56.968;24.196;2023-08-20T04:46:42;24.90;79.90
72604;DHT22;60645;56.968;24.196;2023-08-20T04:49:10;25.00;78.90
72604;DHT22;60645;56.968;24.196;2023-08-20T04:51:37;25.40;78.70
72604;DHT22;60645;56.968;24.196;2023-08-20T04:54:04;25.60;78.40
72604;DHT22;60645;56.968;24.196;2023-08-20T04:58:58;26.10;76.70
72604;DHT22;60645;56.968;24.196;2023-08-20T05:01:25;26.40;76.20
72604;DHT22;60645;56.968;24.196;2023-08-20T05:03:52;26.50;75.40
72604;DHT22;60645;56.968;24.196;2023-08-20T05:06:19;26.40;75.60
72604;DHT22;60645;56.968;24.196;2023-08-20T05:08:46;26.50;75.00
72604;DHT22;60645;56.968;24.196;2023-08-20T05:11:13;26.60;73.90
72604;DHT22;60645;56.968;24.196;2023-08-20T05:13:40;26.40;75.00
72604;DHT22;60645;56.968;24.196;2023-08-20T05:16:08;26.50;74.90
72604;DHT22;60645;56.968;24.196;2023-08-20T05:18:35;26.80;74.00
72604;DHT22;60645;56.968;24.196;2023-08-20T05:21:02;27.00;73.20
72604;DHT22;60645;56.968;24.196;2023-08-20T05:23:29;27.50;71.50
72604;DHT22;60645;56.968;24.196;2023-08-20T05:25:56;27.50;71.70
72604;DHT22;60645;56.968;24.196;2023-08-20T05:28:23;27.60;72.00
72604;DHT22;60645;56.968;24.196;2023-08-20T05:30:56;27.70;70.90
72604;DHT22;60645;56.968;24.196;2023-08-20T05:33:24;27.60;71.10
72604;DHT22;60645;56.968;24.196;2023-08-20T05:35:51;28.10;70.40
72604;DHT22;60645;56.968;24.196;2023-08-20T05:38:18;28.20;69.00
72604;DHT22;60645;56.968;24.196;2023-08-20T05:40:47;28.80;68.40
72604;DHT22;60645;56.968;24.196;2023-08-20T05:43:16;29.70;65.40
72604;DHT22;60645;56.968;24.196;2023-08-20T05:48:10;30.20;64.10
72604;DHT22;60645;56.968;24.196;2023-08-20T05:50:38;30.50;62.00
72604;DHT22;60645;56.968;24.196;2023-08-20T05:53:04;30.90;61.40
72604;DHT22;60645;56.968;24.196;2023-08-20T05:55:31;30.60;62.10
72604;DHT22;60645;56.968;24.196;2023-08-20T05:57:58;30.20;62.60
72604;DHT22;60645;56.968;24.196;2023-08-20T06:00:25;30.00;62.90
72604;DHT22;60645;56.968;24.196;2023-08-20T06:02:52;30.00;63.80
72604;DHT22;60645;56.968;24.196;2023-08-20T06:05:19;30.10;63.60
72604;DHT22;60645;56.968;24.196;2023-08-20T06:07:45;30.40;63.60
72604;DHT22;60645;56.968;24.196;2023-08-20T06:10:12;30.50;62.90
72604;DHT22;60645;56.968;24.196;2023-08-20T06:12:39;31.30;60.70
72604;DHT22;60645;56.968;24.196;2023-08-20T06:15:07;30.90;61.70
72604;DHT22;60645;56.968;24.196;2023-08-20T06:20:04;30.80;61.70
72604;DHT22;60645;56.968;24.196;2023-08-20T06:22:35;31.00;61.80
72604;DHT22;60645;56.968;24.196;2023-08-20T06:25:02;31.10;62.00
72604;DHT22;60645;56.968;24.196;2023-08-20T06:27:30;31.10;61.50
72604;DHT22;60645;56.968;24.196;2023-08-20T06:29:57;31.40;60.60
72604;DHT22;60645;56.968;24.196;2023-08-20T06:32:24;31.50;60.00
72604;DHT22;60645;56.968;24.196;2023-08-20T06:34:51;31.80;59.40
72604;DHT22;60645;56.968;24.196;2023-08-20T06:37:18;31.60;59.20
72604;DHT22;60645;56.968;24.196;2023-08-20T06:39:44;31.40;60.10
72604;DHT22;60645;56.968;24.196;2023-08-20T06:42:11;31.50;60.30
72604;DHT22;60645;56.968;24.196;2023-08-20T06:44:38;31.60;59.80
72604;DHT22;60645;56.968;24.196;2023-08-20T06:47:05;32.10;59.70
72604;DHT22;60645;56.968;24.196;2023-08-20T06:49:32;32.10;59.50
72604;DHT22;60645;56.968;24.196;2023-08-20T06:51:59;32.40;58.80
72604;DHT22;60645;56.968;24.196;2023-08-20T06:54:25;32.60;58.50
72604;DHT22;60645;56.968;24.196;2023-08-20T06:56:52;32.90;57.60
72604;DHT22;60645;56.968;24.196;2023-08-20T06:59:19;32.70;58.50
72604;DHT22;60645;56.968;24.196;2023-08-20T07:01:46;32.40;57.60
72604;DHT22;60645;56.968;24.196;2023-08-20T07:04:13;32.00;58.50
72604;DHT22;60645;56.968;24.196;2023-08-20T07:06:40;32.00;58.70
72604;DHT22;60645;56.968;24.196;2023-08-20T07:09:08;32.60;58.30
72604;DHT22;60645;56.968;24.196;2023-08-20T07:11:35;33.10;57.10
72604;DHT22;60645;56.968;24.196;2023-08-20T07:14:02;33.40;56.40
72604;DHT22;60645;56.968;24.196;2023-08-20T07:16:29;33.30;55.50
72604;DHT22;60645;56.968;24.196;2023-08-20T07:18:56;33.10;56.00
72604;DHT22;60645;56.968;24.196;2023-08-20T07:21:23;33.20;55.30
72604;DHT22;60645;56.968;24.196;2023-08-20T07:23:50;33.20;55.20
72604;DHT22;60645;56.968;24.196;2023-08-20T07:26:17;33.00;55.80
72604;DHT22;60645;56.968;24.196;2023-08-20T07:31:25;33.30;55.50
72604;DHT22;60645;56.968;24.196;2023-08-20T07:33:52;33.20;55.80
72604;DHT22;60645;56.968;24.196;2023-08-20T07:36:20;33.70;54.80
72604;DHT22;60645;56.968;24.196;2023-08-20T07:38:49;33.80;53.80
72604;DHT22;60645;56.968;24.196;2023-08-20T07:41:16;34.10;52.80
72604;DHT22;60645;56.968;24.196;2023-08-20T07:43:43;34.90;51.80
72604;DHT22;60645;56.968;24.196;2023-08-20T07:46:10;35.00;51.60
72604;DHT22;60645;56.968;24.196;2023-08-20T07:48:37;35.40;49.80
72604;DHT22;60645;56.968;24.196;2023-08-20T07:51:05;35.20;50.70
72604;DHT22;60645;56.968;24.196;2023-08-20T07:53:32;34.70;51.40
72604;DHT22;60645;56.968;24.196;2023-08-20T07:56:02;35.10;50.10
72604;DHT22;60645;56.968;24.196;2023-08-20T07:58:29;34.60;51.20
72604;DHT22;60645;56.968;24.196;2023-08-20T08:00:56;34.90;51.20
72604;DHT22;60645;56.968;24.196;2023-08-20T08:03:24;35.00;51.00
72604;DHT22;60645;56.968;24.196;2023-08-20T08:05:51;35.20;51.70
72604;DHT22;60645;56.968;24.196;2023-08-20T08:08:19;35.20;51.40
72604;DHT22;60645;56.968;24.196;2023-08-20T08:10:47;34.90;51.40
72604;DHT22;60645;56.968;24.196;2023-08-20T08:13:18;35.50;50.80
72604;DHT22;60645;56.968;24.196;2023-08-20T08:15:45;34.80;51.10
72604;DHT22;60645;56.968;24.196;2023-08-20T08:18:12;35.00;50.90
72604;DHT22;60645;56.968;24.196;2023-08-20T08:20:39;35.30;51.20
72604;DHT22;60645;56.968;24.196;2023-08-20T08:23:06;35.30;51.00
72604;DHT22;60645;56.968;24.196;2023-08-20T08:25:33;35.00;51.60
72604;DHT22;60645;56.968;24.196;2023-08-20T08:28:00;35.80;50.90
72604;DHT22;60645;56.968;24.196;2023-08-20T08:30:27;35.90;49.90
72604;DHT22;60645;56.968;24.196;2023-08-20T08:32:56;36.20;49.70
72604;DHT22;60645;56.968;24.196;2023-08-20T08:35:23;36.30;49.70
72604;DHT22;60645;56.968;24.196;2023-08-20T08:37:50;36.00;49.90
72604;DHT22;60645;56.968;24.196;2023-08-20T08:40:17;36.40;49.00
72604;DHT22;60645;56.968;24.196;2023-08-20T08:42:47;36.40;48.90
72604;DHT22;60645;56.968;24.196;2023-08-20T08:45:16;35.90;49.80
72604;DHT22;60645;56.968;24.196;2023-08-20T08:47:44;35.40;49.70
72604;DHT22;60645;56.968;24.196;2023-08-20T08:50:11;35.70;50.20
72604;DHT22;60645;56.968;24.196;2023-08-20T08:52:38;36.30;48.80
72604;DHT22;60645;56.968;24.196;2023-08-20T08:55:05;35.40;49.90
72604;DHT22;60645;56.968;24.196;2023-08-20T08:57:35;35.80;49.70
72604;DHT22;60645;56.968;24.196;2023-08-20T09:00:03;35.90;49.20
72604;DHT22;60645;56.968;24.196;2023-08-20T09:04:58;35.50;48.70
72604;DHT22;60645;56.968;24.196;2023-08-20T09:07:25;35.20;50.00
72604;DHT22;60645;56.968;24.196;2023-08-20T09:09:58;35.50;49.40
72604;DHT22;60645;56.968;24.196;2023-08-20T09:12:26;35.10;50.40
72604;DHT22;60645;56.968;24.196;2023-08-20T09:14:54;35.30;49.70
72604;DHT22;60645;56.968;24.196;2023-08-20T09:17:28;36.10;49.10
72604;DHT22;60645;56.968;24.196;2023-08-20T09:19:55;36.80;47.70
72604;DHT22;60645;56.968;24.196;2023-08-20T09:22:26;37.30;47.40
72604;DHT22;60645;56.968;24.196;2023-08-20T09:24:54;37.10;48.20
72604;DHT22;60645;56.968;24.196;2023-08-20T09:27:22;36.90;47.80
72604;DHT22;60645;56.968;24.196;2023-08-20T09:29:53;36.00;48.50
72604;DHT22;60645;56.968;24.196;2023-08-20T09:32:21;35.80;49.20
72604;DHT22;60645;56.968;24.196;2023-08-20T09:34:49;36.00;49.40
72604;DHT22;60645;56.968;24.196;2023-08-20T09:37:17;37.10;47.20
72604;DHT22;60645;56.968;24.196;2023-08-20T09:42:13;36.20;48.20
72604;DHT22;60645;56.968;24.196;2023-08-20T09:44:41;36.90;47.70
72604;DHT22;60645;56.968;24.196;2023-08-20T09:47:09;37.80;46.20
72604;DHT22;60645;56.968;24.196;2023-08-20T09:49:37;38.20;45.70
72604;DHT22;60645;56.968;24.196;2023-08-20T09:52:05;37.40;45.90
72604;DHT22;60645;56.968;24.196;2023-08-20T09:57:02;38.00;45.50
72604;DHT22;60645;56.968;24.196;2023-08-20T09:59:31;37.60;45.30
72604;DHT22;60645;56.968;24.196;2023-08-20T10:01:58;37.00;46.70
72604;DHT22;60645;56.968;24.196;2023-08-20T10:04:26;37.00;46.60
72604;DHT22;60645;56.968;24.196;2023-08-20T10:06:53;36.20;46.80
72604;DHT22;60645;56.968;24.196;2023-08-20T10:09:21;35.80;47.60
72604;DHT22;60645;56.968;24.196;2023-08-20T10:11:49;35.50;48.50
72604;DHT22;60645;56.968;24.196;2023-08-20T10:14:16;35.10;49.00
72604;DHT22;60645;56.968;24.196;2023-08-20T10:19:11;35.10;49.30
72604;DHT22;60645;56.968;24.196;2023-08-20T10:21:45;35.80;48.60
72604;DHT22;60645;56.968;24.196;2023-08-20T10:24:19;36.30;47.10
72604;DHT22;60645;56.968;24.196;2023-08-20T10:26:47;35.80;47.90
72604;DHT22;60645;56.968;24.196;2023-08-20T10:29:34;35.90;47.60
72604;DHT22;60645;56.968;24.196;2023-08-20T10:32:13;36.20;47.20
72604;DHT22;60645;56.968;24.196;2023-08-20T10:37:13;36.70;46.10
72604;DHT22;60645;56.968;24.196;2023-08-20T10:45:07;37.30;46.00
72604;DHT22;60645;56.968;24.196;2023-08-20T10:47:41;37.90;44.80
72604;DHT22;60645;56.968;24.196;2023-08-20T10:50:09;38.10;44.90
72604;DHT22;60645;56.968;24.196;2023-08-20T10:52:47;38.10;44.20
72604;DHT22;60645;56.968;24.196;2023-08-20T10:55:14;36.80;46.00
72604;DHT22;60645;56.968;24.196;2023-08-20T10:57:41;37.80;45.20
72604;DHT22;60645;56.968;24.196;2023-08-20T11:00:09;38.40;44.60
72604;DHT22;60645;56.968;24.196;2023-08-20T11:02:42;38.20;44.40
72604;DHT22;60645;56.968;24.196;2023-08-20T11:05:35;37.60;45.50
72604;DHT22;60645;56.968;24.196;2023-08-20T11:08:03;37.90;44.50
72604;DHT22;60645;56.968;24.196;2023-08-20T11:10:35;37.30;45.50
72604;DHT22;60645;56.968;24.196;2023-08-20T11:13:02;38.40;43.80
72604;DHT22;60645;56.968;24.196;2023-08-20T11:15:30;38.30;44.20
72604;DHT22;60645;56.968;24.196;2023-08-20T11:17:57;37.80;44.80
72604;DHT22;60645;56.968;24.196;2023-08-20T11:20:24;38.00;44.70
72604;DHT22;60645;56.968;24.196;2023-08-20T11:22:51;37.80;44.50
72604;DHT22;60645;56.968;24.196;2023-08-20T11:25:18;37.80;44.60
72604;DHT22;60645;56.968;24.196;2023-08-20T11:27:45;37.60;44.80
72604;DHT22;60645;56.968;24.196;2023-08-20T11:30:12;38.40;44.10
72604;DHT22;60645;56.968;24.196;2023-08-20T11:32:40;39.10;43.30
72604;DHT22;60645;56.968;24.196;2023-08-20T11:35:08;37.40;45.00
72604;DHT22;60645;56.968;24.196;2023-08-20T11:37:35;37.70;44.60
72604;DHT22;60645;56.968;24.196;2023-08-20T11:40:02;36.90;45.90
72604;DHT22;60645;56.968;24.196;2023-08-20T11:42:29;37.60;45.20
72604;DHT22;60645;56.968;24.196;2023-08-20T11:44:56;37.90;44.80
72604;DHT22;60645;56.968;24.196;2023-08-20T11:47:24;38.40;44.40
72604;DHT22;60645;56.968;24.196;2023-08-20T11:52:33;37.70;44.70
72604;DHT22;60645;56.968;24.196;2023-08-20T11:55:00;38.20;44.20
72604;DHT22;60645;56.968;24.196;2023-08-20T11:57:29;38.70;43.90
72604;DHT22;60645;56.968;24.196;2023-08-20T11:59:59;38.80;43.10
72604;DHT22;60645;56.968;24.196;2023-08-20T12:02:26;38.90;43.00
72604;DHT22;60645;56.968;24.196;2023-08-20T12:05:06;37.40;44.30
72604;DHT22;60645;56.968;24.196;2023-08-20T12:07:33;36.70;45.40
72604;DHT22;60645;56.968;24.196;2023-08-20T12:10:18;36.50;45.60
72604;DHT22;60645;56.968;24.196;2023-08-20T12:15:15;38.10;43.70
72604;DHT22;60645;56.968;24.196;2023-08-20T12:17:42;37.70;44.50
72604;DHT22;60645;56.968;24.196;2023-08-20T12:20:08;37.60;44.60
72604;DHT22;60645;56.968;24.196;2023-08-20T12:25:06;37.90;44.10
72604;DHT22;60645;56.968;24.196;2023-08-20T12:30:00;38.60;43.20
72604;DHT22;60645;56.968;24.196;2023-08-20T12:32:27;38.40;43.20
72604;DHT22;60645;56.968;24.196;2023-08-20T12:37:21;37.00;45.30
72604;DHT22;60645;56.968;24.196;2023-08-20T12:39:48;37.80;44.20
72604;DHT22;60645;56.968;24.196;2023-08-20T12:42:15;36.20;45.70
72604;DHT22;60645;56.968;24.196;2023-08-20T12:44:42;35.80;46.70
72604;DHT22;60645;56.968;24.196;2023-08-20T12:47:09;36.40;45.90
72604;DHT22;60645;56.968;24.196;2023-08-20T12:49:36;36.90;45.30
72604;DHT22;60645;56.968;24.196;2023-08-20T12:52:03;37.50;44.50
72604;DHT22;60645;56.968;24.196;2023-08-20T12:54:30;36.70;45.20
72604;DHT22;60645;56.968;24.196;2023-08-20T12:59:24;36.30;45.90
72604;DHT22;60645;56.968;24.196;2023-08-20T13:01:52;36.20;46.30
72604;DHT22;60645;56.968;24.196;2023-08-20T13:04:20;35.60;46.70
72604;DHT22;60645;56.968;24.196;2023-08-20T13:06:47;35.10;47.90
72604;DHT22;60645;56.968;24.196;2023-08-20T13:09:14;35.20;47.90
72604;DHT22;60645;56.968;24.196;2023-08-20T13:11:42;35.90;46.80
72604;DHT22;60645;56.968;24.196;2023-08-20T13:14:09;36.00;46.80
72604;DHT22;60645;56.968;24.196;2023-08-20T13:16:36;34.50;48.50
72604;DHT22;60645;56.968;24.196;2023-08-20T13:19:03;34.10;49.70
72604;DHT22;60645;56.968;24.196;2023-08-20T13:21:30;33.30;51.20
72604;DHT22;60645;56.968;24.196;2023-08-20T13:23:57;30.80;57.40
72604;DHT22;60645;56.968;24.196;2023-08-20T13:28:51;28.60;62.70
72604;DHT22;60645;56.968;24.196;2023-08-20T13:31:17;27.60;66.10
72604;DHT22;60645;56.968;24.196;2023-08-20T13:33:44;27.00;68.20
72604;DHT22;60645;56.968;24.196;2023-08-20T13:36:11;26.60;69.70
72604;DHT22;60645;56.968;24.196;2023-08-20T13:38:38;26.50;70.40
72604;DHT22;60645;56.968;24.196;2023-08-20T13:41:05;26.30;71.20
72604;DHT22;60645;56.968;24.196;2023-08-20T13:43:32;26.40;70.90
72604;DHT22;60645;56.968;24.196;2023-08-20T13:45:59;26.30;70.70
72604;DHT22;60645;56.968;24.196;2023-08-20T13:50:53;25.90;71.60
72604;DHT22;60645;56.968;24.196;2023-08-20T13:58:14;25.30;74.20
72604;DHT22;60645;56.968;24.196;2023-08-20T14:00:41;25.20;75.40
72604;DHT22;60645;56.968;24.196;2023-08-20T14:03:08;25.20;74.80
72604;DHT22;60645;56.968;24.196;2023-08-20T14:05:35;25.20;74.70
72604;DHT22;60645;56.968;24.196;2023-08-20T14:08:02;25.30;74.70
72604;DHT22;60645;56.968;24.196;2023-08-20T14:10:29;25.30;74.50
72604;DHT22;60645;56.968;24.196;2023-08-20T14:15:23;25.00;75.80
72604;DHT22;60645;56.968;24.196;2023-08-20T14:17:50;24.80;76.30
72604;DHT22;60645;56.968;24.196;2023-08-20T14:20:17;24.90;76.30
72604;DHT22;60645;56.968;24.196;2023-08-20T14:22:44;24.80;76.30
72604;DHT22;60645;56.968;24.196;2023-08-20T14:25:10;24.70;76.50
72604;DHT22;60645;56.968;24.196;2023-08-20T14:27:37;24.60;76.90
72604;DHT22;60645;56.968;24.196;2023-08-20T14:30:05;24.60;77.10
72604;DHT22;60645;56.968;24.196;2023-08-20T14:32:32;24.60;77.10
72604;DHT22;60645;56.968;24.196;2023-08-20T14:35:02;24.50;77.20
72604;DHT22;60645;56.968;24.196;2023-08-20T14:37:29;24.60;77.20
72604;DHT22;60645;56.968;24.196;2023-08-20T14:39:56;24.70;76.90
72604;DHT22;60645;56.968;24.196;2023-08-20T14:42:23;24.70;76.90
72604;DHT22;60645;56.968;24.196;2023-08-20T14:44:50;24.70;77.10
72604;DHT22;60645;56.968;24.196;2023-08-20T14:47:17;24.70;77.00
72604;DHT22;60645;56.968;24.196;2023-08-20T14:49:43;24.50;77.60
72604;DHT22;60645;56.968;24.196;2023-08-20T14:52:10;24.50;77.50
72604;DHT22;60645;56.968;24.196;2023-08-20T14:54:57;24.40;78.00
72604;DHT22;60645;56.968;24.196;2023-08-20T14:57:24;24.50;77.70
72604;DHT22;60645;56.968;24.196;2023-08-20T15:00:00;24.50;77.90
72604;DHT22;60645;56.968;24.196;2023-08-20T15:02:26;24.20;78.20
72604;DHT22;60645;56.968;24.196;2023-08-20T15:04:53;24.30;78.50
72604;DHT22;60645;56.968;24.196;2023-08-20T15:07:20;24.00;79.70
72604;DHT22;60645;56.968;24.196;2023-08-20T15:12:14;23.70;80.30
72604;DHT22;60645;56.968;24.196;2023-08-20T15:14:41;23.50;80.60
72604;DHT22;60645;56.968;24.196;2023-08-20T15:17:08;23.40;80.90
72604;DHT22;60645;56.968;24.196;2023-08-20T15:19:35;23.20;81.30
72604;DHT22;60645;56.968;24.196;2023-08-20T15:22:02;23.30;81.60
72604;DHT22;60645;56.968;24.196;2023-08-20T15:24:30;23.20;81.40
72604;DHT22;60645;56.968;24.196;2023-08-20T15:26:57;23.00;81.90
72604;DHT22;60645;56.968;24.196;2023-08-20T15:29:24;23.00;82.00
72604;DHT22;60645;56.968;24.196;2023-08-20T15:31:50;23.10;82.20
72604;DHT22;60645;56.968;24.196;2023-08-20T15:34:18;23.00;82.80
72604;DHT22;60645;56.968;24.196;2023-08-20T15:36:45;23.00;82.40
72604;DHT22;60645;56.968;24.196;2023-08-20T15:39:12;22.90;82.40
72604;DHT22;60645;56.968;24.196;2023-08-20T15:41:39;22.90;82.90
72604;DHT22;60645;56.968;24.196;2023-08-20T15:44:08;22.90;82.80
72604;DHT22;60645;56.968;24.196;2023-08-20T15:46:34;22.90;83.00
72604;DHT22;60645;56.968;24.196;2023-08-20T15:49:03;22.80;83.10
72604;DHT22;60645;56.968;24.196;2023-08-20T15:51:30;22.70;83.40
72604;DHT22;60645;56.968;24.196;2023-08-20T15:53:58;22.80;83.10
72604;DHT22;60645;56.968;24.196;2023-08-20T15:56:25;22.70;83.70
72604;DHT22;60645;56.968;24.196;2023-08-20T15:58:53;22.70;83.30
72604;DHT22;60645;56.968;24.196;2023-08-20T16:01:19;22.80;83.40
72604;DHT22;60645;56.968;24.196;2023-08-20T16:03:46;22.90;83.30
72604;DHT22;60645;56.968;24.196;2023-08-20T16:06:13;22.90;83.30
72604;DHT22;60645;56.968;24.196;2023-08-20T16:08:40;22.90;83.00
72604;DHT22;60645;56.968;24.196;2023-08-20T16:11:07;22.80;83.00
72604;DHT22;60645;56.968;24.196;2023-08-20T16:13:34;22.80;83.40
72604;DHT22;60645;56.968;24.196;2023-08-20T16:16:01;22.80;83.50
72604;DHT22;60645;56.968;24.196;2023-08-20T16:18:28;22.80;83.50
72604;DHT22;60645;56.968;24.196;2023-08-20T16:20:55;22.90;83.20
72604;DHT22;60645;56.968;24.196;2023-08-20T16:23:22;23.00;83.10
72604;DHT22;60645;56.968;24.196;2023-08-20T16:25:49;22.90;83.40